HALF-HOURLY OBSERVATIONS INDEX

065

Central Western Slopes - south

COWRA AIRPORT AWS

Site: 065111
Alt: 300.4m
5km SW of COWRA


  Time     Wind        Temp  DP   Baro     Rain since   Rain past  Vis(m), Cloud(base in m), Weather
  local        km/h                         9am  last   hr   10m    
Mon 11:00  NNW  7/ 13  26.7 15.4  1016.2    0.0   0.0   0.0   0.0   ----- 
Mon 11:30  NNE  9/ 13  28.2 15.1  1016.0    0.0   0.0   0.0   0.0   ----- 
Mon 12:00  ENE  7/ 13  29.6 12.9  1015.7    0.0   0.0   0.0   0.0   ----- 
Mon 12:30    E  6/ 11  31.1 12.9  1015.5    0.0   0.0   0.0   0.0   ----- 
Mon 13:00   SE  7/ 11  30.3 12.2  1015.1    0.0   0.0   0.0   0.0   ----- 
Mon 13:30   NE  7/ 15  32.5 12.7  1014.9    0.0   0.0   0.0   0.0   ----- 
Mon 14:00  NNW  7/ 11  32.5 12.2  1014.6    0.0   0.0   0.0   0.0   ----- 
Mon 14:30  WNW  7/ 13  32.2 10.8  1014.3    0.0   0.0   0.0   0.0   ----- 
Mon 15:00   SW 13/ 20  32.8  8.9  1013.9    0.0   0.0   0.0   0.0   ----- 
Mon 15:30   SE  7/ 13  32.2  9.7  1013.5    0.0   0.0   0.0   0.0   ----- 
Mon 16:00    S 13/ 20  32.8  6.9  1013.2    0.0   0.0   0.0   0.0   ----- 
Mon 16:30   SE  9/ 19  32.1  8.4  1012.9    0.0   0.0   0.0   0.0   ----- 

DUBBO AIRPORT AWS

Site: 065070
Alt: 284.0m
4km NW of DUBBO


  Time     Wind        Temp  DP   Baro     Rain since   Rain past  Vis(m), Cloud(base in m), Weather
  local        km/h                         9am  last   hr   10m    
Mon 11:00    N  7/ 13  30.4 16.8  1015.8    0.0   0.0   0.0   0.0   10000 
Mon 11:30  SSW  6/ 17  31.4 15.0  1015.6    0.0   0.0   0.0   0.0   10000 
Mon 12:00    S  9/ 20  32.4 12.6  1015.6    0.0   0.0   0.0   0.0   10000 
Mon 12:30  ESE  9/ 22  32.4 14.1  1015.3    0.0   0.0   0.0   0.0   10000 
Mon 13:00   SE 11/ 20  32.7 12.3  1014.9    0.0   0.0   0.0   0.0   10000 
Mon 13:30    W  9/ 15  33.1 13.7  1014.7    0.0   0.0   0.0   0.0   10000 
Mon 14:00    E 13/ 19  33.4 12.4  1014.3    0.0   0.0   0.0   0.0   10000 
Mon 14:30    N  9/ 20  34.0 14.5  1013.8    0.0   0.0   0.0   0.0   10000 
Mon 15:00    N  9/ 15  33.8 12.7  1013.2    0.0   0.0   0.0   0.0   10000 
Mon 15:30    E 13/ 22  34.8 15.2  1012.9    0.0   0.0   0.0   0.0   10000|SC2640 
Mon 16:00  ESE 11/ 20  34.5 13.9  1012.6    0.0   0.0   0.0   0.0   10000|SC2640 
Mon 16:30  ESE 17/ 26  34.4 14.3  1012.3    0.0   0.0   0.0   0.0   10000|SC2640 

FORBES AIRPORT AWS

Site: 065103
Alt: 230.4m
34km SW of PARKES


  Time     Wind        Temp  DP   Baro     Rain since   Rain past  Vis(m), Cloud(base in m), Weather
  local        km/h                         9am  last   hr   10m    
Mon 11:00  NNE  2/  6  32.0 12.8  1015.2    0.0   0.0   0.0   0.0   ----- 
Mon 11:30    W  9/ 13  32.2 12.9  1015.1    0.0   0.0   0.0   0.0   ----- 
Mon 12:00   SW 11/ 22  32.5 12.7  1014.9    0.0   0.0   0.0   0.0   ----- 
Mon 12:30   SW 11/ 19  33.2 12.8  1014.8    0.0   0.0   0.0   0.0   ----- 
Mon 13:00   SW 11/ 24  33.4 10.1  1014.5    0.0   0.0   0.0   0.0   ----- 
Mon 13:30    W 11/ 30  34.2  8.0  1014.3    0.0   0.0   0.0   0.0   ----- 
Mon 14:00    W 13/ 24  33.7  7.6  1014.1    0.0   0.0   0.0   0.0   ----- 
Mon 14:30  WSW 11/ 20  33.3  8.0  1013.7    0.0   0.0   0.0   0.0   ----- 
Mon 15:00   SW 13/ 22  34.1  6.4  1013.2    0.0   0.0   0.0   0.0   ----- 
Mon 15:30  WSW  9/ 19  34.4  7.5  1012.8    0.0   0.0   0.0   0.0   ----- 
Mon 16:00    W  6/ 13  34.7  7.7  1012.3    0.0   0.0   0.0   0.0   ----- 
Mon 16:30   SW 13/ 20  35.0  5.4  1012.1    0.0   0.0   0.0   0.0   ----- 

PARKES AIRPORT AWS

Site: 065068
Alt: 323.3m
7km E of PARKES


  Time     Wind        Temp  DP   Baro     Rain since   Rain past  Vis(m), Cloud(base in m), Weather
  local        km/h                         9am  last   hr   10m    
Mon 11:00  WSW  9/ 20  30.4 10.9  1016.1    0.0   0.0   0.0   0.0   10000 
Mon 11:30  SSW 11/ 20  31.2 11.1  1016.0    0.0   0.0   0.0   0.0   10000 
Mon 12:00  WSW 11/ 24  32.4  9.2  1015.5    0.0   0.0   0.0   0.0   10000 
Mon 12:30  SSW  9/ 15  32.8  8.9  1015.3    0.0   0.0   0.0   0.0   10000 
Mon 13:00  WSW 19/ 32  33.5  7.5  1015.1    0.0   0.0   0.0   0.0   10000 
Mon 13:30    W 15/ 22  33.3  7.3  1014.9    0.0   0.0   0.0   0.0   10000 
Mon 14:00  SSW 17/ 30  33.3  8.0  1014.6    0.0   0.0   0.0   0.0   10000 
Mon 14:30  SSW 26/ 35  33.2  7.2  1014.2    0.0   0.0   0.0   0.0   10000 
Mon 15:00   SW 22/ 30  33.4  7.4  1013.9    0.0   0.0   0.0   0.0   10000 
Mon 15:30  ESE  7/ 13  34.3  7.4  1013.3    0.0   0.0   0.0   0.0   10000 
Mon 16:00  WSW 15/ 17  33.5  5.9  1013.2    0.0   0.0   0.0   0.0   10000 
Mon 16:30    S 15/ 24  34.1  6.4  1012.9    0.0   0.0   0.0   0.0   10000